Nikiski, AK

3:51 AM AKST on February 09, 2016 (GMT -0900)
NOS_NWLON | | Change Station
CLOSE
Current Station
Personal Weather Station
Location: Nikiski, AK
Elevation: 0 ft
Nearby Weather Stations

Elev 0 ft 60.68 °N, 151.40 °W | Updated 1 hour ago

Scattered Clouds
Scattered Clouds
32.0 °F
Feels Like 22 °F
N
13.0
Wind Variable Wind from ENE
Gusts 17.0 mph

Today
High -- | Low -- °F
--% Chance of Precip.
Yesterday
High -- | Low -- °F
Precip. -- in
Pressure 29.93 in
Visibility 10.0 miles
Clouds Scattered Clouds 8000 ft
Windchill 22 °F
Dew Point Not available.
Humidity Not available.
Rainfall in
Snow Depth Not available.
9:03 AM 5:37 PM
New Moon, 1% visible
METAR PAEN 091053Z AUTO 03005KT 10SM SCT080 M03/M06 A2992 RMK AO2 SLP134 T10281056 TSNO
Pressure 29.93 in
Visibility 10.0 miles
Clouds Scattered Clouds 8000 ft
Windchill 22 °F
Dew Point Not available.
Humidity Not available.
Rainfall in
Snow Depth Not available.
9:03 AM 5:37 PM
New Moon, 1% visible
METAR PAEN 091053Z AUTO 03005KT 10SM SCT080 M03/M06 A2992 RMK AO2 SLP134 T10281056 TSNO

10-Day Weather Forecast

Almanac

Astronomy

Feb. 09, 2016 Rise Set
Actual Time
Civil Twilight
Nautical Twilight
Astronomical Twilight
Moon
Length of Visible Light
Length of Day
Tomorrow will be .
, % of the Moon is Illuminated

Today's Extremes

State Highs State Lows

Community

WunderPhotos

Upload Photos

1,891,589 photos uploaded!

WunderBlog® & News

Nearby

Air Quality

  Air Quality AQ Index Pollutant
Not available.

Snow Depth

Station Depth Elevation

Earthquake Activity

City Distance Mag. Time & Date
Minimum magnitude displayed is 2.5.

Coastal Water Temperatures

Place Temperature

Stations

Nearby Weather Stations

Station Location Temp. Windchill Dew Point Humidity Wind Precip. Elev Updated Type
                   

Watches & Warnings

There are currently no watches in effect.